createdAt,value
2018-07-22T00:00:51.334Z,99.99
2018-07-22T00:01:51.411Z,99.99
2018-07-22T00:02:51.437Z,99.99
2018-07-22T00:03:51.484Z,99.99
2018-07-22T00:04:51.533Z,99.99
2018-07-22T00:05:51.585Z,99.99
2018-07-22T00:06:51.661Z,99.99
2018-07-22T00:07:51.708Z,99.99
2018-07-22T00:08:51.735Z,99.99
2018-07-22T00:09:51.784Z,99.99
2018-07-22T00:10:51.837Z,99.99
2018-07-22T00:11:51.888Z,99.99
2018-07-22T00:12:51.962Z,99.99
2018-07-22T00:13:52.010Z,99.99
2018-07-22T00:14:52.037Z,99.99
2018-07-22T00:15:52.089Z,99.99
2018-07-22T00:16:52.139Z,99.99
2018-07-22T00:17:52.224Z,99.99
2018-07-22T00:18:52.237Z,99.99
2018-07-22T00:19:52.288Z,99.99
2018-07-22T00:20:52.337Z,99.99
2018-07-22T00:21:52.392Z,99.99
2018-07-22T00:22:52.477Z,99.99
2018-07-22T00:23:52.488Z,99.99
2018-07-22T00:24:52.539Z,99.99
2018-07-22T00:25:52.589Z,99.99
2018-07-22T00:26:52.639Z,99.99
2018-07-22T00:27:52.722Z,99.99
2018-07-22T00:28:52.739Z,99.99
2018-07-22T00:29:52.800Z,99.99
2018-07-22T00:30:52.841Z,99.99
2018-07-22T00:31:52.889Z,99.99
2018-07-22T00:32:52.971Z,99.99
2018-07-22T00:33:52.996Z,99.99
2018-07-22T00:34:53.050Z,99.99
2018-07-22T00:35:53.097Z,99.99
2018-07-22T00:36:53.140Z,99.99
2018-07-22T00:37:53.217Z,99.99
2018-07-22T00:38:53.242Z,99.99
2018-07-22T00:39:53.314Z,99.99
2018-07-22T00:40:53.342Z,99.99
2018-07-22T00:41:53.392Z,99.99
2018-07-22T00:42:53.444Z,99.99
2018-07-22T00:43:53.514Z,99.99
2018-07-22T00:44:53.578Z,99.99
2018-07-22T00:45:53.593Z,99.99
2018-07-22T00:46:53.642Z,99.99
2018-07-22T00:47:53.693Z,99.99
2018-07-22T00:48:53.744Z,99.99
2018-07-22T00:49:53.833Z,99.99
2018-07-22T00:50:53.845Z,99.99
2018-07-22T00:51:53.894Z,99.99
2018-07-22T00:52:53.947Z,99.99
2018-07-22T00:53:53.993Z,99.99
2018-07-22T00:54:54.089Z,99.99
2018-07-22T00:55:54.093Z,99.99
2018-07-22T00:56:54.145Z,99.99
2018-07-22T00:57:54.195Z,99.99
2018-07-22T00:58:54.244Z,99.99
2018-07-22T00:59:54.330Z,99.99
2018-07-22T01:00:54.367Z,99.99
2018-07-22T01:01:54.393Z,99.99
2018-07-22T01:02:54.448Z,99.99
2018-07-22T01:03:54.494Z,99.99
2018-07-22T01:04:54.544Z,99.99
2018-07-22T01:05:54.618Z,99.99
2018-07-22T01:06:54.647Z,99.99
2018-07-22T01:07:54.695Z,99.99
2018-07-22T01:08:54.744Z,99.99
2018-07-22T01:09:54.796Z,99.99
2018-07-22T01:10:54.878Z,99.99
2018-07-22T01:11:54.895Z,99.99
2018-07-22T01:12:54.946Z,99.99
2018-07-22T01:13:55.002Z,99.99
2018-07-22T01:14:55.047Z,99.99
2018-07-22T01:15:55.135Z,99.99
2018-07-22T01:16:55.144Z,99.99
2018-07-22T01:17:55.195Z,99.99
2018-07-22T01:18:55.248Z,99.99
2018-07-22T01:19:55.294Z,99.99
2018-07-22T01:20:55.376Z,99.99
2018-07-22T01:21:55.398Z,99.99
2018-07-22T01:22:55.447Z,99.99
2018-07-22T01:23:55.496Z,99.99
2018-07-22T01:24:55.546Z,99.99
2018-07-22T01:25:55.621Z,99.99
2018-07-22T01:26:55.647Z,99.99
2018-07-22T01:27:55.722Z,99.99
2018-07-22T01:28:55.746Z,99.99
2018-07-22T01:29:55.797Z,99.99
2018-07-22T01:30:55.846Z,99.99
2018-07-22T01:31:55.917Z,99.99
2018-07-22T01:32:55.950Z,99.99
2018-07-22T01:33:55.994Z,99.99
2018-07-22T01:34:56.044Z,99.99
2018-07-22T01:35:56.098Z,99.99
2018-07-22T01:36:56.173Z,99.99
2018-07-22T01:37:56.218Z,99.99
2018-07-22T01:38:56.244Z,99.99
2018-07-22T01:39:56.308Z,99.99
2018-07-22T01:40:56.350Z,99.99
2018-07-22T01:41:56.395Z,99.99
2018-07-22T01:42:56.470Z,99.99
2018-07-22T01:43:56.495Z,99.99
2018-07-22T01:44:56.551Z,99.99
2018-07-22T01:45:56.600Z,99.99
2018-07-22T01:46:56.646Z,99.99
2018-07-22T01:47:56.739Z,99.99
2018-07-22T01:48:56.749Z,99.99
2018-07-22T01:49:56.795Z,99.99
2018-07-22T01:50:56.852Z,99.99
2018-07-22T01:51:56.899Z,99.99
2018-07-22T01:52:56.976Z,99.99
2018-07-22T01:53:56.999Z,99.99
2018-07-22T01:54:57.045Z,99.99
2018-07-22T01:55:57.101Z,99.99
2018-07-22T01:56:57.151Z,99.99
2018-07-22T01:57:57.218Z,99.99
2018-07-22T01:58:57.247Z,99.99
2018-07-22T01:59:57.319Z,99.99
2018-07-22T02:00:57.346Z,99.99
2018-07-22T02:01:57.399Z,99.99
2018-07-22T02:02:57.447Z,99.99
2018-07-22T02:03:57.497Z,99.99
2018-07-22T02:04:57.570Z,99.99
2018-07-22T02:05:57.596Z,99.99
2018-07-22T02:06:57.647Z,99.99
2018-07-22T02:07:57.699Z,99.99
2018-07-22T02:08:57.748Z,99.99
2018-07-22T02:09:57.822Z,99.99
2018-07-22T02:10:57.870Z,99.99
2018-07-22T02:11:57.904Z,99.99
2018-07-22T02:12:57.950Z,99.99
2018-07-22T02:13:57.996Z,99.99
2018-07-22T02:14:58.080Z,99.99
2018-07-22T02:15:58.097Z,99.99
2018-07-22T02:16:58.145Z,99.99
2018-07-22T02:17:58.195Z,99.99
2018-07-22T02:18:58.246Z,99.99
2018-07-22T02:19:58.317Z,99.99
2018-07-22T02:20:58.348Z,99.99
2018-07-22T02:21:58.436Z,99.99
2018-07-22T02:22:58.448Z,99.99
2018-07-22T02:23:58.494Z,99.99
2018-07-22T02:24:58.546Z,99.99
2018-07-22T02:25:58.599Z,99.99
2018-07-22T02:26:58.677Z,99.99
2018-07-22T02:27:58.702Z,99.99
2018-07-22T02:28:58.748Z,99.99
2018-07-22T02:29:58.795Z,99.99
2018-07-22T02:30:58.845Z,99.99
2018-07-22T02:31:58.923Z,99.99
2018-07-22T02:32:58.945Z,99.99
2018-07-22T02:33:58.997Z,99.99
2018-07-22T02:34:59.049Z,99.99
2018-07-22T02:35:59.103Z,99.99
2018-07-22T02:36:59.182Z,99.99
2018-07-22T02:37:59.195Z,99.99
2018-07-22T02:38:59.245Z,99.99
2018-07-22T02:39:59.293Z,99.99
2018-07-22T02:40:59.345Z,99.99
2018-07-22T02:41:59.427Z,99.99
2018-07-22T02:42:59.446Z,99.99
2018-07-22T02:43:59.496Z,99.99
2018-07-22T02:44:59.545Z,99.99
2018-07-22T02:45:59.594Z,99.99
2018-07-22T02:46:59.681Z,99.99
2018-07-22T02:47:59.693Z,99.99
2018-07-22T02:48:59.746Z,99.99
2018-07-22T02:49:59.795Z,99.99
2018-07-22T02:50:59.844Z,99.99
2018-07-22T02:51:59.927Z,99.99
2018-07-22T02:52:59.946Z,99.99
2018-07-22T02:53:59.996Z,99.99
2018-07-22T02:55:00.045Z,99.99
2018-07-22T02:56:00.094Z,99.99
2018-07-22T02:57:00.177Z,99.99
2018-07-22T02:58:00.196Z,99.99
2018-07-22T02:59:00.245Z,99.99
2018-07-22T03:00:00.293Z,99.99
2018-07-22T03:01:00.349Z,99.99
2018-07-22T03:02:00.440Z,99.99
2018-07-22T03:03:00.448Z,99.99
2018-07-22T03:04:00.496Z,99.99
2018-07-22T03:05:00.544Z,99.99
2018-07-22T03:06:00.598Z,99.99
2018-07-22T03:07:00.674Z,99.99
2018-07-22T03:08:00.697Z,99.99
2018-07-22T03:09:00.745Z,99.99
2018-07-22T03:10:00.795Z,99.99
2018-07-22T03:11:01.301Z,99.99
2018-07-22T03:12:00.929Z,99.99
2018-07-22T03:13:00.946Z,99.99
2018-07-22T03:14:00.995Z,99.99
2018-07-22T03:15:01.061Z,99.99
2018-07-22T03:16:01.095Z,99.99
2018-07-22T03:17:01.190Z,99.99
2018-07-22T03:18:01.199Z,99.99
2018-07-22T03:19:01.246Z,99.99
2018-07-22T03:20:01.302Z,99.99
2018-07-22T03:21:01.374Z,99.99
2018-07-22T03:22:01.420Z,99.99
2018-07-22T03:23:01.449Z,99.99
2018-07-22T03:24:01.495Z,99.99
2018-07-22T03:25:01.570Z,99.99
2018-07-22T03:26:01.597Z,99.99
2018-07-22T03:27:01.649Z,99.99
2018-07-22T03:28:01.700Z,99.99
2018-07-22T03:29:01.747Z,99.99
2018-07-22T03:30:01.821Z,99.99
2018-07-22T03:31:01.847Z,99.99
2018-07-22T03:32:01.906Z,99.99
2018-07-22T03:33:01.950Z,99.99
2018-07-22T03:34:01.998Z,99.99
2018-07-22T03:35:02.074Z,99.99
2018-07-22T03:36:02.099Z,99.99
2018-07-22T03:37:02.151Z,99.99
2018-07-22T03:38:03.060Z,99.99
2018-07-22T03:39:02.280Z,99.99
2018-07-22T03:40:02.334Z,99.99
2018-07-22T03:41:02.352Z,99.99
2018-07-22T03:42:02.397Z,99.99
2018-07-22T03:43:02.447Z,99.99
2018-07-22T03:44:02.529Z,99.99
2018-07-22T03:45:02.572Z,99.99
2018-07-22T03:46:02.598Z,99.99
2018-07-22T03:47:02.650Z,99.99
2018-07-22T03:48:02.749Z,99.99
2018-07-22T03:49:02.749Z,99.99
2018-07-22T03:50:02.830Z,99.99
2018-07-22T03:51:02.849Z,99.99
2018-07-22T03:52:02.902Z,99.99
2018-07-22T03:53:02.948Z,99.99
2018-07-22T03:54:03.002Z,99.99
2018-07-22T03:55:03.082Z,99.99
2018-07-22T03:56:03.108Z,99.99
2018-07-22T03:57:03.151Z,99.99
2018-07-22T03:58:03.198Z,99.99
2018-07-22T03:59:03.249Z,99.99
2018-07-22T04:00:03.337Z,99.99
2018-07-22T04:01:03.349Z,99.99
2018-07-22T04:02:03.397Z,99.99
2018-07-22T04:03:03.454Z,99.99
2018-07-22T04:04:03.499Z,99.99
2018-07-22T04:05:03.573Z,99.99
2018-07-22T04:06:03.603Z,99.99
2018-07-22T04:07:03.709Z,99.99
2018-07-22T04:08:03.708Z,99.99
2018-07-22T04:09:03.752Z,99.99
2018-07-22T04:10:03.803Z,99.99
2018-07-22T04:11:03.851Z,99.99
2018-07-22T04:12:03.925Z,99.99
2018-07-22T04:13:03.953Z,99.99
2018-07-22T04:14:04.001Z,99.99
2018-07-22T04:15:04.053Z,99.99
2018-07-22T04:16:04.101Z,99.99
2018-07-22T04:17:04.199Z,99.99
2018-07-22T04:18:04.199Z,99.99
2018-07-22T04:19:04.251Z,99.99
2018-07-22T04:20:04.302Z,99.99
2018-07-22T04:21:04.350Z,99.99
2018-07-22T04:22:04.430Z,99.99
2018-07-22T04:23:04.453Z,99.99
2018-07-22T04:24:04.501Z,99.99
2018-07-22T04:25:04.552Z,99.99
2018-07-22T04:26:04.604Z,99.99
2018-07-22T04:27:04.677Z,99.99
2018-07-22T04:28:04.725Z,99.99
2018-07-22T04:29:04.753Z,99.99
2018-07-22T04:30:04.805Z,99.99
2018-07-22T04:31:04.852Z,99.99
2018-07-22T04:32:04.903Z,99.99
2018-07-22T04:33:04.976Z,99.99
2018-07-22T04:34:05.008Z,99.99
2018-07-22T04:35:05.053Z,99.99
2018-07-22T04:36:05.108Z,99.99
2018-07-22T04:37:05.152Z,99.99
2018-07-22T04:38:05.241Z,99.99
2018-07-22T04:39:05.258Z,99.99
2018-07-22T04:40:05.304Z,99.99
2018-07-22T04:41:05.359Z,99.99
2018-07-22T04:42:05.410Z,99.99
2018-07-22T04:43:05.489Z,99.99
2018-07-22T04:44:05.502Z,99.99
2018-07-22T04:45:05.555Z,99.99
2018-07-22T04:46:05.603Z,99.99
2018-07-22T04:47:05.657Z,99.99
2018-07-22T04:48:05.733Z,99.99
2018-07-22T04:49:05.753Z,99.99
2018-07-22T04:50:05.806Z,99.99
2018-07-22T04:51:05.855Z,99.99
2018-07-22T04:52:05.903Z,99.99
2018-07-22T04:53:05.997Z,99.99
2018-07-22T04:54:06.007Z,99.99
2018-07-22T04:55:06.055Z,99.99
2018-07-22T04:56:06.104Z,99.99
2018-07-22T04:57:06.154Z,99.99
2018-07-22T04:58:06.237Z,99.99
2018-07-22T04:59:06.255Z,99.99
2018-07-22T05:00:06.304Z,99.99
2018-07-22T05:01:06.355Z,99.99
2018-07-22T05:02:06.409Z,99.99
2018-07-22T05:03:06.488Z,99.99
2018-07-22T05:04:06.506Z,99.99
2018-07-22T05:05:06.565Z,99.99
2018-07-22T05:06:06.608Z,99.99
2018-07-22T05:07:06.658Z,99.99
2018-07-22T05:08:06.731Z,99.99
2018-07-22T05:09:06.760Z,99.99
2018-07-22T05:10:06.810Z,99.99
2018-07-22T05:11:06.883Z,99.99
2018-07-22T05:12:06.910Z,99.99
2018-07-22T05:13:06.964Z,99.99
2018-07-22T05:14:07.015Z,99.99
2018-07-22T05:15:07.096Z,99.99
2018-07-22T05:16:07.110Z,99.99
2018-07-22T05:17:07.157Z,99.99
2018-07-22T05:18:07.209Z,99.99
2018-07-22T05:19:07.258Z,99.99
2018-07-22T05:20:07.342Z,99.99
2018-07-22T05:21:07.385Z,99.99
2018-07-22T05:22:07.411Z,99.99
2018-07-22T05:23:07.463Z,99.99
2018-07-22T05:24:07.513Z,99.99
2018-07-22T05:25:07.561Z,99.99
2018-07-22T05:26:07.639Z,99.99
2018-07-22T05:27:07.663Z,99.99
2018-07-22T05:28:07.714Z,99.99
2018-07-22T05:29:07.765Z,99.99
2018-07-22T05:30:07.815Z,99.99
2018-07-22T05:31:07.890Z,99.99
2018-07-22T05:32:07.914Z,99.99
2018-07-22T05:33:07.963Z,99.99
2018-07-22T05:34:08.015Z,99.99
2018-07-22T05:35:08.071Z,99.99
2018-07-22T05:36:08.163Z,99.99
2018-07-22T05:37:08.170Z,99.99
2018-07-22T05:38:08.215Z,99.99
2018-07-22T05:39:08.266Z,99.99
2018-07-22T05:40:08.316Z,99.99
2018-07-22T05:41:08.400Z,99.99
2018-07-22T05:42:08.476Z,99.99
2018-07-22T05:43:08.471Z,99.99
2018-07-22T05:44:08.524Z,99.99
2018-07-22T05:45:08.571Z,99.99
2018-07-22T05:46:08.619Z,99.99
2018-07-22T05:47:08.695Z,99.99
2018-07-22T05:48:08.721Z,99.99
2018-07-22T05:49:08.772Z,99.99
2018-07-22T05:50:08.820Z,99.99
2018-07-22T05:51:08.874Z,99.99
2018-07-22T05:52:08.956Z,99.99
2018-07-22T05:53:08.977Z,99.99
2018-07-22T05:54:09.024Z,99.99
2018-07-22T05:55:09.073Z,99.99
2018-07-22T05:56:09.130Z,99.99
2018-07-22T05:57:09.202Z,99.99
2018-07-22T05:58:09.255Z,99.99
2018-07-22T05:59:09.276Z,99.99
2018-07-22T06:00:10.099Z,99.99
2018-07-22T06:01:09.378Z,99.99
2018-07-22T06:02:09.442Z,99.99
2018-07-22T06:03:09.515Z,99.99
2018-07-22T06:04:09.531Z,99.99
2018-07-22T06:05:09.583Z,99.99
2018-07-22T06:06:09.632Z,99.99
2018-07-22T06:07:09.686Z,99.99
2018-07-22T06:08:09.762Z,99.99
2018-07-22T06:09:09.791Z,99.99
2018-07-22T06:10:09.834Z,99.99
2018-07-22T06:11:09.889Z,99.99
2018-07-22T06:12:10.007Z,99.99
2018-07-22T06:13:10.026Z,99.99
2018-07-22T06:14:10.039Z,99.99
2018-07-22T06:15:10.088Z,99.99
2018-07-22T06:16:10.141Z,99.99
2018-07-22T06:17:10.194Z,99.99
2018-07-22T06:18:10.275Z,99.99
2018-07-22T06:19:10.294Z,99.99
2018-07-22T06:20:10.343Z,99.99
2018-07-22T06:21:10.420Z,99.99
2018-07-22T06:22:11.104Z,99.99
2018-07-22T06:23:10.520Z,99.99
2018-07-22T06:24:10.582Z,99.99
2018-07-22T06:25:10.599Z,99.99
2018-07-22T06:26:10.649Z,99.99
2018-07-22T06:27:10.701Z,99.99
2018-07-22T06:28:10.757Z,99.99
2018-07-22T06:29:10.832Z,99.99
2018-07-22T06:30:10.854Z,99.99
2018-07-22T06:31:10.905Z,99.99
2018-07-22T06:32:10.955Z,99.99
2018-07-22T06:33:11.007Z,99.99
2018-07-22T06:34:11.098Z,99.99
2018-07-22T06:35:11.143Z,99.99
2018-07-22T06:36:11.162Z,99.99
2018-07-22T06:37:11.217Z,99.99
2018-07-22T06:38:11.262Z,99.99
2018-07-22T06:39:11.313Z,99.99
2018-07-22T06:40:11.387Z,99.99
2018-07-22T06:41:11.471Z,99.99
2018-07-22T06:42:11.468Z,99.99
2018-07-22T06:43:11.522Z,99.99
2018-07-22T06:44:11.577Z,99.99
2018-07-22T06:45:11.646Z,99.99
2018-07-22T06:46:11.688Z,99.99
2018-07-22T06:47:11.722Z,99.99
2018-07-22T06:48:11.774Z,99.99
2018-07-22T06:49:11.827Z,99.99
2018-07-22T06:50:11.900Z,99.99
2018-07-22T06:51:12.816Z,99.99
2018-07-22T06:52:11.980Z,99.99
2018-07-22T06:53:12.031Z,99.99
2018-07-22T06:54:12.084Z,99.99
2018-07-22T06:55:12.156Z,99.99
2018-07-22T06:56:12.183Z,99.99
2018-07-22T06:57:12.274Z,99.99
2018-07-22T06:58:12.287Z,99.99
2018-07-22T06:59:12.337Z,99.99
2018-07-22T07:00:12.421Z,99.99
2018-07-22T07:01:12.449Z,99.99
2018-07-22T07:02:12.490Z,99.99
2018-07-22T07:03:12.546Z,99.99
2018-07-22T07:04:12.593Z,99.99
2018-07-22T07:05:12.725Z,99.99
2018-07-22T07:06:12.720Z,99.99
2018-07-22T07:07:12.751Z,99.99
2018-07-22T07:08:13.622Z,99.99
2018-07-22T07:09:12.852Z,99.99
2018-07-22T07:10:12.902Z,99.99
2018-07-22T07:11:13.846Z,99.99
2018-07-22T07:12:13.005Z,99.99
2018-07-22T07:13:13.056Z,99.99
2018-07-22T07:14:13.108Z,99.99
2018-07-22T07:15:13.161Z,99.99
2018-07-22T07:16:13.245Z,99.99
2018-07-22T07:17:13.259Z,99.99
2018-07-22T07:18:13.315Z,99.99
2018-07-22T07:19:13.364Z,99.99
2018-07-22T07:20:13.415Z,99.99
2018-07-22T07:21:13.508Z,99.99
2018-07-22T07:22:13.519Z,99.99
2018-07-22T07:23:13.580Z,99.99
2018-07-22T07:24:13.622Z,99.99
2018-07-22T07:25:13.673Z,99.99
2018-07-22T07:26:13.751Z,99.99
2018-07-22T07:27:13.810Z,99.99
2018-07-22T07:28:13.828Z,99.99
2018-07-22T07:29:13.877Z,99.99
2018-07-22T07:30:13.934Z,99.99
2018-07-22T07:31:13.980Z,99.99
2018-07-22T07:32:14.059Z,99.99
2018-07-22T07:33:14.087Z,99.99
2018-07-22T07:34:14.138Z,99.99
2018-07-22T07:35:14.190Z,99.99
2018-07-22T07:36:14.241Z,99.99
2018-07-22T07:37:14.317Z,99.99
2018-07-22T07:38:14.368Z,99.99
2018-07-22T07:39:14.413Z,99.99
2018-07-22T07:40:14.444Z,99.99
2018-07-22T07:41:14.500Z,99.99
2018-07-22T07:42:14.579Z,99.99
2018-07-22T07:43:14.630Z,99.99
2018-07-22T07:44:14.652Z,99.99
2018-07-22T07:45:14.703Z,99.99
2018-07-22T07:46:14.759Z,99.99
2018-07-22T07:47:14.808Z,99.99
2018-07-22T07:48:14.890Z,99.99
2018-07-22T07:49:14.914Z,99.99
2018-07-22T07:50:14.962Z,99.99
2018-07-22T07:51:15.016Z,99.99
2018-07-22T07:52:15.066Z,99.99
2018-07-22T07:53:15.167Z,99.99
2018-07-22T07:54:15.172Z,99.99
2018-07-22T07:55:15.224Z,99.99
2018-07-22T07:56:15.281Z,99.99
2018-07-22T07:57:15.329Z,99.99
2018-07-22T07:58:15.402Z,99.99
2018-07-22T07:59:15.463Z,99.99
2018-07-22T08:00:15.480Z,99.99
2018-07-22T08:01:15.539Z,99.99
2018-07-22T08:02:15.589Z,99.99
2018-07-22T08:03:15.639Z,99.99
2018-07-22T08:04:15.713Z,99.99
2018-07-22T08:05:15.745Z,99.99
2018-07-22T08:06:15.795Z,99.99
2018-07-22T08:07:15.860Z,99.99
2018-07-22T08:08:15.899Z,99.99
2018-07-22T08:09:15.992Z,99.99
2018-07-22T08:10:16.003Z,99.99
2018-07-22T08:11:16.056Z,99.99
2018-07-22T08:12:16.108Z,99.99
2018-07-22T08:13:16.160Z,99.99
2018-07-22T08:14:16.235Z,99.99
2018-07-22T08:15:16.287Z,99.99
2018-07-22T08:16:16.315Z,99.99
2018-07-22T08:17:16.369Z,99.99
2018-07-22T09:10:57.962Z,99.99
2018-07-22T09:11:26.801Z,99.99
2018-07-22T09:12:26.883Z,99.99
2018-07-22T09:13:26.947Z,99.99
2018-07-22T09:14:26.956Z,99.99
2018-07-22T09:15:27.009Z,99.99
2018-07-22T09:16:27.060Z,99.99
2018-07-22T09:17:27.115Z,99.99
2018-07-22T09:18:27.210Z,99.99
2018-07-22T09:19:27.222Z,99.99
2018-07-22T09:20:27.273Z,99.99
2018-07-22T09:21:27.326Z,99.99
2018-07-22T09:22:27.375Z,99.99
2018-07-22T09:23:27.465Z,99.99
2018-07-22T09:24:27.504Z,99.99
2018-07-22T09:25:27.533Z,99.99
2018-07-22T09:26:27.588Z,99.99
2018-07-22T09:27:27.640Z,99.99
2018-07-22T09:28:27.737Z,99.99
2018-07-22T09:29:27.744Z,99.99
2018-07-22T09:30:27.799Z,99.99
2018-07-22T09:31:27.849Z,99.99
2018-07-22T09:32:27.900Z,99.99
2018-07-22T09:33:27.978Z,99.99
2018-07-22T09:34:28.032Z,99.99
2018-07-22T09:35:28.059Z,99.99
2018-07-22T09:36:28.115Z,99.99
2018-07-22T09:37:28.169Z,99.99
2018-07-22T09:38:28.217Z,99.99
2018-07-22T09:39:28.319Z,99.99
2018-07-22T09:40:28.324Z,99.99
2018-07-22T09:41:28.377Z,99.99
2018-07-22T09:42:28.429Z,99.99
2018-07-22T09:43:28.478Z,99.99
2018-07-22T09:44:28.574Z,99.99
2018-07-22T09:45:28.583Z,99.99
2018-07-22T09:46:28.644Z,99.99
2018-07-22T09:47:28.692Z,99.99
2018-07-22T09:48:28.741Z,99.99
2018-07-22T09:49:28.816Z,99.99
2018-07-22T09:50:28.871Z,99.99
2018-07-22T09:51:28.900Z,99.99
2018-07-22T09:52:29.947Z,99.99
2018-07-22T09:53:29.006Z,99.99
2018-07-22T09:54:29.056Z,99.99
2018-07-22T09:55:29.133Z,99.99
2018-07-22T09:56:29.161Z,99.99
2018-07-22T09:57:29.215Z,99.99
2018-07-22T09:58:29.269Z,99.99
2018-07-22T09:59:29.320Z,99.99
2018-07-22T10:00:29.393Z,99.99
2018-07-22T10:01:29.422Z,99.99
2018-07-22T10:02:29.478Z,99.99
2018-07-22T10:03:29.526Z,99.99
2018-07-22T10:04:29.591Z,99.99
2018-07-22T10:05:29.663Z,99.99
2018-07-22T10:06:29.689Z,99.99
2018-07-22T10:07:29.735Z,99.99
2018-07-22T10:08:29.786Z,99.99
2018-07-22T10:09:29.842Z,99.99
2018-07-22T10:10:29.992Z,99.99
2018-07-22T10:11:29.950Z,99.99
2018-07-22T10:12:29.996Z,99.99
2018-07-22T10:13:30.049Z,99.99
2018-07-22T10:14:30.170Z,99.99
2018-07-22T10:15:30.183Z,99.99
2018-07-22T10:16:30.203Z,99.99
2018-07-22T10:17:30.282Z,99.99
2018-07-22T10:18:30.313Z,99.99
2018-07-22T10:19:30.360Z,99.99
2018-07-22T10:20:30.437Z,99.99
2018-07-22T10:21:30.495Z,99.99
2018-07-22T10:22:30.515Z,99.99
2018-07-22T10:23:30.625Z,99.99
2018-07-22T10:24:30.620Z,99.99
2018-07-22T10:25:30.669Z,99.99
2018-07-22T10:26:30.761Z,99.99
2018-07-22T10:27:30.774Z,99.99
2018-07-22T10:28:30.827Z,99.99
2018-07-22T10:29:30.882Z,99.99
2018-07-22T10:30:30.933Z,99.99
2018-07-22T10:31:31.009Z,99.99
2018-07-22T10:32:31.036Z,99.99
2018-07-22T10:33:31.095Z,99.99
2018-07-22T10:34:31.141Z,99.99
2018-07-22T10:35:31.191Z,99.99
2018-07-22T10:36:31.278Z,99.99
2018-07-22T10:37:31.296Z,99.99
2018-07-22T10:38:31.348Z,99.99
2018-07-22T10:39:32.167Z,99.99
2018-07-22T10:40:31.450Z,99.99
2018-07-22T10:41:31.527Z,99.99
2018-07-22T10:42:31.579Z,99.99
2018-07-22T10:43:31.609Z,99.99
2018-07-22T10:44:31.660Z,99.99
2018-07-22T10:45:31.710Z,99.99
2018-07-22T10:46:31.792Z,99.99
2018-07-22T10:47:31.815Z,99.99
2018-07-22T10:48:31.865Z,99.99
2018-07-22T10:49:31.917Z,99.99
2018-07-22T10:50:31.973Z,99.99
2018-07-22T10:51:32.048Z,99.99
2018-07-22T10:52:32.098Z,99.99
2018-07-22T10:53:32.128Z,99.99
2018-07-22T10:54:32.182Z,99.99
2018-07-22T10:55:32.231Z,99.99
2018-07-22T10:56:32.288Z,99.99
2018-07-22T10:57:32.365Z,99.99
2018-07-22T10:58:32.392Z,99.99
2018-07-22T10:59:32.437Z,99.99
2018-07-22T11:00:32.492Z,99.99
2018-07-22T11:01:32.549Z,99.99
2018-07-22T11:02:32.757Z,99.99
2018-07-22T11:03:32.645Z,99.99
2018-07-22T11:04:32.697Z,99.99
2018-07-22T11:05:32.749Z,99.99
2018-07-22T11:06:32.802Z,99.99
2018-07-22T11:07:32.888Z,99.99
2018-07-22T11:08:32.915Z,99.99
2018-07-22T11:09:32.956Z,99.99
2018-07-22T11:10:33.011Z,99.99
2018-07-22T11:11:33.062Z,99.99
2018-07-22T11:12:33.138Z,99.99
2018-07-22T11:13:33.167Z,99.99
2018-07-22T11:14:33.294Z,99.99
2018-07-22T11:15:33.269Z,99.99
2018-07-22T11:16:33.320Z,99.99
2018-07-22T11:17:33.372Z,99.99
2018-07-22T11:18:33.468Z,99.99
2018-07-22T11:19:33.479Z,99.99
2018-07-22T11:20:33.532Z,99.99
2018-07-22T11:21:33.585Z,99.99
2018-07-22T11:22:33.634Z,99.99
2018-07-22T11:23:33.710Z,99.99
2018-07-22T11:24:33.740Z,99.99
2018-07-22T11:25:33.816Z,99.99
2018-07-22T11:26:33.840Z,99.99
2018-07-22T11:27:33.891Z,99.99
2018-07-22T11:28:33.983Z,99.99
2018-07-22T11:29:33.997Z,99.99
2018-07-22T11:30:34.078Z,99.99
2018-07-22T11:31:34.102Z,99.99
2018-07-22T11:32:34.154Z,99.99
2018-07-22T11:33:34.210Z,99.99
2018-07-22T11:34:34.257Z,99.99
2018-07-22T11:35:34.331Z,99.99
2018-07-22T11:36:34.398Z,99.99
2018-07-22T11:37:34.416Z,99.99
2018-07-22T11:38:34.464Z,99.99
2018-07-22T11:39:34.518Z,99.99
2018-07-22T11:40:34.570Z,99.99
2018-07-22T11:41:34.648Z,99.99
2018-07-22T11:42:34.672Z,99.99
2018-07-22T11:43:34.723Z,99.99
2018-07-22T11:44:34.777Z,99.99
2018-07-22T11:45:34.853Z,99.99
2018-07-22T11:46:34.880Z,99.99
2018-07-22T11:47:34.942Z,99.99
2018-07-22T11:48:34.990Z,99.99
2018-07-22T11:49:35.035Z,99.99
2018-07-22T11:50:35.153Z,99.99
2018-07-22T11:51:35.139Z,99.99
2018-07-22T11:52:35.224Z,99.99
2018-07-22T11:53:35.245Z,99.99
2018-07-22T11:54:35.296Z,99.99
2018-07-22T11:55:35.348Z,99.99
2018-07-22T11:56:35.403Z,99.99
2018-07-22T11:57:35.478Z,99.99
2018-07-22T11:58:35.507Z,99.99
2018-07-22T11:59:35.554Z,99.99
2018-07-22T12:00:35.608Z,99.99
2018-07-22T12:01:35.741Z,99.99
2018-07-22T12:02:35.712Z,99.99
2018-07-22T12:03:35.762Z,99.99
2018-07-22T12:04:35.813Z,99.99
2018-07-22T12:05:35.865Z,99.99
2018-07-22T12:06:35.943Z,99.99
2018-07-22T12:07:36.039Z,99.99
2018-07-22T12:08:36.043Z,99.99
2018-07-22T12:09:36.071Z,99.99
2018-07-22T12:10:36.129Z,99.99
2018-07-22T12:11:36.173Z,99.99
2018-07-22T12:12:36.255Z,99.99
2018-07-22T12:13:36.304Z,99.99
2018-07-22T12:14:36.333Z,99.99
2018-07-22T12:15:36.387Z,99.99
2018-07-22T12:16:36.433Z,99.99
2018-07-22T12:17:36.484Z,99.99
2018-07-22T12:18:36.562Z,99.99
2018-07-22T12:19:36.589Z,99.99
2018-07-22T12:20:36.636Z,99.99
2018-07-22T12:21:36.688Z,99.99
2018-07-22T12:22:36.758Z,99.99
2018-07-22T12:23:36.832Z,99.99
2018-07-22T12:24:36.844Z,99.99
2018-07-22T12:25:36.897Z,99.99
2018-07-22T12:26:36.950Z,99.99
2018-07-22T12:27:37.001Z,99.99
2018-07-22T12:28:37.074Z,99.99
2018-07-22T12:29:37.125Z,99.99
2018-07-22T12:30:37.157Z,99.99
2018-07-22T12:31:37.208Z,99.99
2018-07-22T12:32:37.259Z,99.99
2018-07-22T12:33:37.315Z,99.99
2018-07-22T12:34:37.383Z,99.99
2018-07-22T12:35:37.410Z,99.99
2018-07-22T12:36:37.467Z,99.99
2018-07-22T12:37:37.517Z,99.99
2018-07-22T12:38:37.569Z,99.99
2018-07-22T12:39:37.656Z,99.99
2018-07-22T12:40:37.675Z,99.99
2018-07-22T12:41:37.722Z,99.99
2018-07-22T12:42:37.775Z,99.99
2018-07-22T12:43:37.827Z,99.99
2018-07-22T12:44:37.924Z,99.99
2018-07-22T12:45:37.930Z,99.99
2018-07-22T12:46:37.985Z,99.99
2018-07-22T12:47:38.035Z,99.99
2018-07-22T12:48:38.094Z,99.99
2018-07-22T12:49:38.171Z,99.99
2018-07-22T12:50:38.188Z,98.82
2018-07-22T12:51:38.243Z,99.69
2018-07-22T12:52:38.293Z,99.99
2018-07-22T12:53:38.371Z,99.55
2018-07-22T12:54:38.425Z,96.61
2018-07-22T12:55:38.447Z,95.93
2018-07-22T12:56:38.508Z,96.12
2018-07-22T12:57:38.552Z,97.96
2018-07-22T12:58:38.603Z,97.81
2018-07-22T12:59:38.682Z,96.75
2018-07-22T13:00:38.736Z,97.14
2018-07-22T13:01:38.758Z,97.67
2018-07-22T13:02:38.812Z,98.54
2018-07-22T13:03:38.863Z,95.06
2018-07-22T13:04:38.915Z,93.80
2018-07-22T13:05:38.994Z,95.21
2018-07-22T13:06:39.042Z,96.12
2018-07-22T13:07:39.073Z,95.83
2018-07-22T13:08:39.127Z,95.25
2018-07-22T13:09:39.185Z,95.83
2018-07-22T13:10:39.252Z,95.64
2018-07-22T13:11:39.281Z,97.42
2018-07-22T13:12:39.333Z,94.82
2018-07-22T13:13:39.389Z,93.56
2018-07-22T13:14:39.437Z,93.27
2018-07-22T13:15:39.519Z,92.98
2018-07-22T13:16:39.545Z,93.08
2018-07-22T13:17:39.598Z,91.78
2018-07-22T13:18:39.648Z,92.55
2018-07-22T13:19:39.703Z,92.02
2018-07-22T13:20:39.776Z,93.18
2018-07-22T13:21:39.806Z,93.56
2018-07-22T13:22:39.858Z,92.83
2018-07-22T13:23:39.938Z,91.39
2018-07-22T13:24:39.968Z,91.83
2018-07-22T13:25:40.019Z,92.50
2018-07-22T13:26:40.098Z,92.65
2018-07-22T13:27:40.123Z,93.56
2018-07-22T13:28:40.186Z,93.08
2018-07-22T13:29:40.229Z,92.50
2018-07-22T13:30:40.285Z,91.35
2018-07-22T13:31:40.371Z,91.63
2018-07-22T13:32:40.391Z,91.63
2018-07-22T13:33:40.447Z,94.19
2018-07-22T13:34:40.500Z,93.99
2018-07-22T13:35:40.546Z,89.55
2018-07-22T13:36:40.630Z,89.84
2018-07-22T13:37:40.653Z,89.94
2018-07-22T13:38:40.740Z,89.94
2018-07-22T13:39:40.761Z,89.84
2018-07-22T13:40:40.816Z,90.03
2018-07-22T13:41:40.868Z,89.55
2018-07-22T13:42:40.920Z,89.26
2018-07-22T13:43:41.019Z,89.55
2018-07-22T13:44:41.027Z,88.20
2018-07-22T13:45:41.081Z,89.45